Time,TemperatureF,DewpointF,PressureIn,WindDirection,WindDirectionDegrees,WindSpeedMPH,WindSpeedGustMPH,Humidity,HourlyPrecipIn,Conditions,Clouds,dailyrainin,SolarRadiationWatts/m^2,SoftwareType,DateUTC
2013-04-05 01:00:00,32.0,23.0,-100.00,West,270,1.0,-999.0,70,-99.99,,,-99.99,0.000000,,2013-04-05 05:00:00,
2013-04-05 01:42:00,32.0,23.0,-100.00,West,270,1.0,-999.0,70,-99.99,,,-99.99,0.000000,,2013-04-05 05:42:00,
2013-04-05 01:53:00,32.0,23.0,-100.00,West,270,1.0,-999.0,70,-99.99,,,-99.99,0.000000,,2013-04-05 05:53:00,
2013-04-05 03:00:00,36.0,26.0,-100.00,ENE,67,7.0,-999.0,68,-99.99,,,-99.99,0.000000,,2013-04-05 07:00:00,
2013-04-05 03:42:00,36.0,26.0,-100.00,ENE,67,7.0,-999.0,68,-99.99,,,-99.99,0.000000,,2013-04-05 07:42:00,
2013-04-05 03:53:00,36.0,26.0,-100.00,ENE,67,7.0,-999.0,68,-99.99,,,-99.99,0.000000,,2013-04-05 07:53:00,
2013-04-05 04:00:00,34.0,25.0,-100.00,East,90,5.0,-999.0,70,-99.99,,,-99.99,0.000000,,2013-04-05 08:00:00,
2013-04-05 04:43:00,34.0,25.0,-100.00,East,90,5.0,-999.0,70,-99.99,,,-99.99,0.000000,,2013-04-05 08:43:00,
2013-04-05 04:52:00,34.0,25.0,-100.00,East,90,5.0,-999.0,70,-99.99,,,-99.99,0.000000,,2013-04-05 08:52:00,
2013-04-05 05:00:00,32.0,24.0,-100.00,ENE,67,4.0,-999.0,71,-99.99,,,-99.99,0.000000,,2013-04-05 09:00:00,
2013-04-05 05:43:00,32.0,24.0,-100.00,ENE,67,4.0,-999.0,71,-99.99,,,-99.99,0.000000,,2013-04-05 09:43:00,
2013-04-05 05:53:00,32.0,24.0,-100.00,ENE,67,4.0,-999.0,71,-99.99,,,-99.99,0.000000,,2013-04-05 09:53:00,
2013-04-05 06:00:00,31.0,23.0,-100.00,SSW,202,3.0,-999.0,70,-99.99,,,-99.99,0.000000,,2013-04-05 10:00:00,
2013-04-05 06:43:00,31.0,23.0,-100.00,SSW,202,3.0,-999.0,70,-99.99,,,-99.99,0.000000,,2013-04-05 10:43:00,
2013-04-05 06:53:00,31.0,23.0,-100.00,SSW,202,3.0,-999.0,70,-99.99,,,-99.99,0.000000,,2013-04-05 10:53:00,
2013-04-05 07:00:00,29.0,22.0,-100.00,SW,225,2.0,-999.0,76,-99.99,,,-99.99,0.000000,,2013-04-05 11:00:00,
2013-04-05 07:42:00,29.0,22.0,-100.00,SW,225,2.0,-999.0,76,-99.99,,,-99.99,0.000000,,2013-04-05 11:42:00,
2013-04-05 07:52:00,29.0,22.0,-100.00,SW,225,2.0,-999.0,76,-99.99,,,-99.99,0.000000,,2013-04-05 11:52:00,
2013-04-05 09:00:00,32.0,21.0,-100.00,SSW,202,5.0,-999.0,63,-99.99,,,-99.99,150.800003,,2013-04-05 13:00:00,
2013-04-05 09:43:00,32.0,21.0,-100.00,SSW,202,5.0,-999.0,63,-99.99,,,-99.99,150.800003,,2013-04-05 13:43:00,
2013-04-05 09:53:00,32.0,21.0,-100.00,SSW,202,5.0,-999.0,63,-99.99,,,-99.99,150.800003,,2013-04-05 13:53:00,
2013-04-05 10:00:00,35.0,20.0,-100.00,SW,225,8.0,-999.0,54,-99.99,,,-99.99,308.559998,,2013-04-05 14:00:00,
2013-04-05 10:43:00,35.0,20.0,-100.00,SW,225,8.0,-999.0,54,-99.99,,,-99.99,308.559998,,2013-04-05 14:43:00,
2013-04-05 10:55:00,35.0,20.0,-100.00,SW,225,8.0,-999.0,54,-99.99,,,-99.99,308.559998,,2013-04-05 14:55:00,
2013-04-05 11:00:00,38.0,18.0,-100.00,SSW,202,8.0,-999.0,44,-99.99,,,-99.99,460.519989,,2013-04-05 15:00:00,
2013-04-05 11:43:00,38.0,18.0,-100.00,SSW,202,8.0,-999.0,44,-99.99,,,-99.99,460.519989,,2013-04-05 15:43:00,
2013-04-05 11:55:00,38.0,18.0,-100.00,SSW,202,8.0,-999.0,44,-99.99,,,-99.99,460.519989,,2013-04-05 15:55:00,
2013-04-05 12:00:00,39.0,18.0,-100.00,WSW,247,7.0,-999.0,41,-99.99,,,-99.99,585.799988,,2013-04-05 16:00:00,
2013-04-05 12:43:00,39.0,18.0,-100.00,WSW,247,7.0,-999.0,41,-99.99,,,-99.99,585.799988,,2013-04-05 16:43:00,
2013-04-05 12:53:00,39.0,18.0,-100.00,WSW,247,7.0,-999.0,41,-99.99,,,-99.99,585.799988,,2013-04-05 16:53:00,
2013-04-05 13:00:00,41.0,16.0,-100.00,SSW,202,8.0,-999.0,35,-99.99,,,-99.99,672.799988,,2013-04-05 17:00:00,
2013-04-05 13:46:00,41.0,16.0,-100.00,SSW,202,8.0,-999.0,35,-99.99,,,-99.99,672.799988,,2013-04-05 17:46:00,
2013-04-05 13:53:00,41.0,16.0,-100.00,SSW,202,8.0,-999.0,35,-99.99,,,-99.99,672.799988,,2013-04-05 17:53:00,
2013-04-05 14:00:00,43.0,16.0,-100.00,SSW,202,7.0,-999.0,32,-99.99,,,-99.99,714.559998,,2013-04-05 18:00:00,
2013-04-05 14:43:00,43.0,16.0,-100.00,SSW,202,7.0,-999.0,32,-99.99,,,-99.99,714.559998,,2013-04-05 18:43:00,
2013-04-05 14:53:00,43.0,16.0,-100.00,SSW,202,7.0,-999.0,32,-99.99,,,-99.99,714.559998,,2013-04-05 18:53:00,
2013-04-05 15:00:00,44.0,15.0,-100.00,SW,225,8.0,-999.0,29,-99.99,,,-99.99,690.200012,,2013-04-05 19:00:00,
2013-04-05 15:43:00,44.0,15.0,-100.00,SW,225,8.0,-999.0,29,-99.99,,,-99.99,690.200012,,2013-04-05 19:43:00,
2013-04-05 15:53:00,44.0,15.0,-100.00,SW,225,8.0,-999.0,29,-99.99,,,-99.99,690.200012,,2013-04-05 19:53:00,
2013-04-05 16:00:00,46.0,16.0,-100.00,SW,225,6.0,-999.0,30,-99.99,,,-99.99,638.000000,,2013-04-05 20:00:00,
2013-04-05 16:33:00,46.0,16.0,-100.00,SW,225,6.0,-999.0,30,-99.99,,,-99.99,638.000000,,2013-04-05 20:33:00,
2013-04-05 16:43:00,46.0,16.0,-100.00,SW,225,6.0,-999.0,30,-99.99,,,-99.99,638.000000,,2013-04-05 20:43:00,
2013-04-05 16:53:00,46.0,16.0,-100.00,SW,225,6.0,-999.0,30,-99.99,,,-99.99,638.000000,,2013-04-05 20:53:00,
2013-04-05 17:00:00,47.0,15.0,-100.00,SW,225,7.0,-999.0,26,-99.99,,,-99.99,525.479980,,2013-04-05 21:00:00,
2013-04-05 17:44:00,47.0,15.0,-100.00,SW,225,7.0,-999.0,26,-99.99,,,-99.99,525.479980,,2013-04-05 21:44:00,
2013-04-05 17:55:00,47.0,15.0,-100.00,SW,225,7.0,-999.0,26,-99.99,,,-99.99,525.479980,,2013-04-05 21:55:00,
2013-04-05 18:00:00,46.0,14.0,-100.00,SW,225,6.0,-999.0,27,-99.99,,,-99.99,323.640015,,2013-04-05 22:00:00,
2013-04-05 18:44:00,46.0,14.0,-100.00,SW,225,6.0,-999.0,27,-99.99,,,-99.99,323.640015,,2013-04-05 22:44:00,
2013-04-05 18:53:00,46.0,14.0,-100.00,SW,225,6.0,-999.0,27,-99.99,,,-99.99,323.640015,,2013-04-05 22:53:00,
2013-04-05 19:00:00,45.0,16.0,-100.00,West,270,7.0,-999.0,30,-99.99,,,-99.99,196.039993,,2013-04-05 23:00:00,
2013-04-05 19:43:00,45.0,16.0,-100.00,West,270,7.0,-999.0,30,-99.99,,,-99.99,196.039993,,2013-04-05 23:43:00,
2013-04-05 19:53:00,45.0,16.0,-100.00,West,270,7.0,-999.0,30,-99.99,,,-99.99,196.039993,,2013-04-05 23:53:00,
2013-04-05 21:00:00,37.0,19.0,-100.00,West,270,6.0,-999.0,47,-99.99,,,-99.99,2.320000,,2013-04-06 01:00:00,
2013-04-05 21:43:00,37.0,19.0,-100.00,West,270,6.0,-999.0,47,-99.99,,,-99.99,2.320000,,2013-04-06 01:43:00,
2013-04-05 21:53:00,37.0,19.0,-100.00,West,270,6.0,-999.0,47,-99.99,,,-99.99,2.320000,,2013-04-06 01:53:00,
2013-04-05 22:00:00,35.0,19.0,-100.00,WNW,292,5.0,-999.0,52,-99.99,,,-99.99,0.000000,,2013-04-06 02:00:00,
2013-04-05 22:43:00,35.0,19.0,-100.00,WNW,292,5.0,-999.0,52,-99.99,,,-99.99,0.000000,,2013-04-06 02:43:00,
2013-04-05 22:53:00,35.0,19.0,-100.00,WNW,292,5.0,-999.0,52,-99.99,,,-99.99,0.000000,,2013-04-06 02:53:00,
2013-04-05 23:00:00,34.0,17.0,-100.00,East,90,4.0,-999.0,49,-99.99,,,-99.99,0.000000,,2013-04-06 03:00:00,
2013-04-05 23:43:00,34.0,17.0,-100.00,East,90,4.0,-999.0,49,-99.99,,,-99.99,0.000000,,2013-04-06 03:43:00,
2013-04-05 23:55:00,34.0,17.0,-100.00,East,90,4.0,-999.0,49,-99.99,,,-99.99,0.000000,,2013-04-06 03:55:00,